Flight Number: EUR1009 Duration: 2:00
Departure: Gatwick Airport (EGKK) at 06:00 Distance: 790 Nm
Arrival: Warsaw Okecie (EPWA) at 08:00 Equipment: B737

Weather Information
London / Gatwick Airport, United Kingdom (EGKK) 51-09N 000-11W 0M Feb 24, 2018 - 12:50 AM EST / 2018.02.24 0550 UTC
Wind: from the ENE (070 degrees) at 9 MPH (8 KT):0
Visibility: greater than 7 mile(s):0 Temperature: 26 F (-3 C)
Windchill: 17 F (-8 C):1 Dew Point: 23 F (-5 C) Relative Humidity: 86% Pressure (altimeter): 30.09 in. Hg (1019 hPa)
ob: EGKK 240550Z 07008KT CAVOK M03/M05 Q1019 cycle: 6
Sunrise: 06:58 Sunset: 17:29 (UTC)

Warszawa-Okecie, Poland (EPWA) 52-10N 020-58E 107M Feb 24, 2018 - 01:00 AM EST / 2018.02.24 0600 UTC
Wind: from the N (350 degrees) at 9 MPH (8 KT):0
Visibility: greater than 7 mile(s):0
Sky conditions: mostly cloudy Weather: light snow Temperature: 21 F (-6 C)
Windchill: 10 F (-12 C):1 Dew Point: 19 F (-7 C) Relative Humidity: 92% Pressure (altimeter): 30.12 in. Hg (1020 hPa)
ob: EPWA 240600Z 35008KT 9999 -SN SCT009 BKN041 M06/M07 Q1020 R33/450295 TEMPO BKN009 cycle: 6
Sunrise: 05:35 Sunset: 16:02 (UTC)

TAF:2018/02/24 06:33 TAF TAF EPWA 240530Z 2406/2506 29008KT 7000 -SN SCT007 BKN014 TEMPO 2406/2409 3500 SN BR BKN007 BECMG 2407/2410 05012KT BKN040 PROB40 TEMPO 2408/2412 05015G26KT

Previous Pireps for this route
Date Aircraft Flight time Fuel used Landing rate On time
2012-10-11A32102.2014079-216Yes
2012-11-08A32102.1812367-136No
2013-01-24A32102.3414512-263Yes
2013-03-25A3212.0200000No
2013-06-06B73702.2012363-243No
2013-09-17A32102.0312754-199Yes
2014-02-26A3212.1412932-425Yes
2014-03-16A32102.1513115-355Yes
2014-10-02A32101.5911895-250No
2015-05-26A32102.3515145-171Yes
2015-08-21A32102.1112375-250Yes
2016-01-10A3212.3055000Charter
2016-01-15A3212.0415912-276Yes
2016-08-24A3212.05131520No
2016-12-03A32102.11125937Yes
(pireps marked green are flown by you)

Route map